Time;durP1;ratioP1;P1;durP2;ratioP2;P2;SDS_P1;SDS_P2;PMS_P1;PMS_P2;Temp;Humidity;BMP_temperature;BMP_pressure;BME280_temperature;BME280_humidity;BME280_pressure;Samples;Min_cycle;Max_cycle;Signal;HPM_P1;HPM_P2
2021/04/18 00:00:10;;;;;;;11.52;3.22;;;;;;;;;;5034706;28;20041;-53
2021/04/18 00:02:39;;;;;;;8.98;2.25;;;;;;;;;;5021534;28;20054;-55
2021/04/18 00:05:07;;;;;;;14.50;3.63;;;;;;;;;;5021717;28;20061;-56
2021/04/18 00:07:34;;;;;;;17.23;3.25;;;;;;;;;;5041726;28;20707;-55
2021/04/18 00:10:00;;;;;;;9.98;2.90;;;;;;;;;;5041958;28;20029;-52
2021/04/18 00:12:26;;;;;;;11.60;3.10;;;;;;;;;;5021181;28;20127;-52
2021/04/18 00:14:52;;;;;;;10.43;3.10;;;;;;;;;;5023484;28;20087;-55
2021/04/18 00:17:18;;;;;;;14.80;3.03;;;;;;;;;;5020066;28;20077;-52
2021/04/18 00:19:44;;;;;;;7.75;2.97;;;;;;;;;;5023468;28;20037;-54
2021/04/18 00:22:10;;;;;;;9.20;2.97;;;;;;;;;;5034329;28;20049;-54
2021/04/18 00:24:37;;;;;;;10.93;3.03;;;;;;;;;;5043493;28;20033;-53
2021/04/18 00:27:04;;;;;;;14.48;3.33;;;;;;;;;;5037694;28;20069;-53
2021/04/18 00:29:32;;;;;;;10.48;3.28;;;;;;;;;;5041956;28;20116;-56
2021/04/18 00:31:58;;;;;;;13.35;2.92;;;;;;;;;;5043884;28;20054;-54
2021/04/18 00:34:24;;;;;;;9.10;2.78;;;;;;;;;;5023166;28;20053;-54
2021/04/18 00:36:50;;;;;;;10.50;3.08;;;;;;;;;;5022504;28;20045;-55
2021/04/18 00:39:16;;;;;;;9.23;3.33;;;;;;;;;;5023021;28;20061;-54
2021/04/18 00:41:43;;;;;;;12.63;3.30;;;;;;;;;;5023710;28;20072;-56
2021/04/18 00:44:11;;;;;;;7.80;2.90;;;;;;;;;;5021704;28;20034;-49
2021/04/18 00:46:37;;;;;;;14.35;3.22;;;;;;;;;;5022495;28;20037;-55
2021/04/18 00:49:04;;;;;;;10.02;2.95;;;;;;;;;;5043092;28;20065;-53
2021/04/18 00:51:29;;;;;;;11.63;3.28;;;;;;;;;;5043710;28;20037;-53
2021/04/18 00:53:55;;;;;;;9.50;3.25;;;;;;;;;;5023186;28;20051;-51
2021/04/18 00:56:22;;;;;;;9.10;2.53;;;;;;;;;;5023458;28;20034;-53
2021/04/18 00:58:49;;;;;;;9.20;2.97;;;;;;;;;;5020895;28;20049;-55
2021/04/18 01:01:14;;;;;;;12.75;3.05;;;;;;;;;;5022286;28;20045;-49
2021/04/18 01:03:40;;;;;;;9.60;2.85;;;;;;;;;;5030134;28;20135;-54
2021/04/18 01:06:06;;;;;;;7.45;2.78;;;;;;;;;;5041795;28;20056;-52
2021/04/18 01:08:32;;;;;;;10.48;3.20;;;;;;;;;;5037296;28;20045;-55
2021/04/18 01:10:58;;;;;;;8.73;2.83;;;;;;;;;;5042187;28;20047;-57
2021/04/18 01:13:24;;;;;;;7.70;2.92;;;;;;;;;;5038086;28;20041;-55
2021/04/18 01:15:52;;;;;;;12.45;3.33;;;;;;;;;;5039816;28;20121;-54
2021/04/18 01:18:18;;;;;;;15.68;3.15;;;;;;;;;;5032763;28;20037;-52
2021/04/18 01:20:44;;;;;;;10.90;3.13;;;;;;;;;;5020883;28;20048;-52
2021/04/18 01:23:11;;;;;;;10.10;3.25;;;;;;;;;;5035672;28;20049;-55
2021/04/18 01:25:39;;;;;;;10.43;2.90;;;;;;;;;;5021294;28;20049;-52
2021/04/18 01:28:06;;;;;;;14.73;3.15;;;;;;;;;;5018033;28;20034;-52
2021/04/18 01:30:32;;;;;;;10.80;3.25;;;;;;;;;;5018868;28;20051;-56
2021/04/18 01:33:00;;;;;;;9.35;3.00;;;;;;;;;;5037868;28;20038;-52
2021/04/18 01:35:26;;;;;;;9.63;2.80;;;;;;;;;;5037218;28;20049;-52
2021/04/18 01:37:52;;;;;;;10.15;3.25;;;;;;;;;;5040528;28;20037;-53
2021/04/18 01:40:20;;;;;;;8.38;3.20;;;;;;;;;;5036484;28;20048;-54
2021/04/18 01:42:47;;;;;;;10.05;3.63;;;;;;;;;;5039542;28;20077;-50
2021/04/18 01:45:14;;;;;;;10.80;2.85;;;;;;;;;;5036857;28;20067;-51
2021/04/18 01:47:40;;;;;;;7.50;2.70;;;;;;;;;;5039219;28;20056;-52
2021/04/18 01:50:09;;;;;;;16.40;3.10;;;;;;;;;;5051424;28;20041;-52
2021/04/18 01:52:35;;;;;;;;;;;;;;;;;;5021377;28;20034;-53
2021/04/18 01:55:01;;;;;;;6.25;2.50;;;;;;;;;;5033653;28;19921;-52
2021/04/18 01:57:28;;;;;;;11.45;2.60;;;;;;;;;;5041329;28;20130;-52
2021/04/18 01:59:54;;;;;;;6.70;2.65;;;;;;;;;;5031845;28;20052;-57
2021/04/18 02:02:20;;;;;;;12.63;3.28;;;;;;;;;;5021671;28;20126;-56
2021/04/18 02:04:46;;;;;;;12.48;3.65;;;;;;;;;;5020757;28;20064;-54
2021/04/18 02:07:12;;;;;;;14.05;3.63;;;;;;;;;;5041705;28;20045;-58
2021/04/18 02:09:38;;;;;;;7.30;2.72;;;;;;;;;;5039974;28;20087;-52
2021/04/18 02:12:06;;;;;;;7.40;2.67;;;;;;;;;;5040391;28;20052;-51
2021/04/18 02:14:33;;;;;;;8.07;2.90;;;;;;;;;;5041020;28;20052;-54
2021/04/18 02:16:59;;;;;;;9.32;3.20;;;;;;;;;;5021314;28;20053;-55
2021/04/18 02:19:28;;;;;;;6.43;3.15;;;;;;;;;;5021526;28;20050;-51
2021/04/18 02:21:54;;;;;;;7.25;2.80;;;;;;;;;;5036556;28;20045;-54
2021/04/18 02:24:20;;;;;;;10.88;3.25;;;;;;;;;;5020875;28;20065;-55
2021/04/18 02:26:46;;;;;;;13.70;3.15;;;;;;;;;;5017811;28;20064;-51
2021/04/18 02:29:12;;;;;;;6.80;2.80;;;;;;;;;;5020205;28;20049;-54
2021/04/18 02:31:39;;;;;;;10.45;3.08;;;;;;;;;;5016825;28;20030;-52
2021/04/18 02:34:05;;;;;;;7.43;2.70;;;;;;;;;;5027183;28;20041;-55
2021/04/18 02:36:31;;;;;;;8.73;3.25;;;;;;;;;;5028351;28;20056;-54
2021/04/18 02:38:57;;;;;;;7.43;2.88;;;;;;;;;;5018626;28;20103;-53
2021/04/18 02:41:23;;;;;;;9.73;3.42;;;;;;;;;;5017658;28;20041;-57
2021/04/18 02:43:51;;;;;;;10.43;3.08;;;;;;;;;;5020193;28;20052;-50
2021/04/18 02:46:17;;;;;;;11.50;3.65;;;;;;;;;;5019774;28;20120;-51
2021/04/18 02:48:45;;;;;;;8.27;2.65;;;;;;;;;;5038549;28;20061;-55
2021/04/18 02:51:11;;;;;;;8.27;3.00;;;;;;;;;;5038450;28;20065;-54
2021/04/18 02:53:38;;;;;;;9.20;3.60;;;;;;;;;;5034457;28;20045;-56
2021/04/18 02:56:05;;;;;;;14.15;2.78;;;;;;;;;;5041616;28;20044;-54
2021/04/18 02:58:31;;;;;;;7.03;2.58;;;;;;;;;;5038407;28;20050;-54
2021/04/18 03:03:25;;;;;;;9.43;3.17;;;;;;;;;;5056996;22;20051;-51
2021/04/18 03:05:51;;;;;;;12.60;3.63;;;;;;;;;;5041006;28;20085;-51
2021/04/18 03:08:17;;;;;;;9.77;3.42;;;;;;;;;;5029218;28;20462;-53
2021/04/18 03:10:44;;;;;;;9.02;3.15;;;;;;;;;;5027098;28;20071;-52
2021/04/18 03:13:10;;;;;;;13.95;3.42;;;;;;;;;;5030791;28;20053;-51
2021/04/18 03:15:36;;;;;;;8.95;3.40;;;;;;;;;;5047673;28;20056;-48
2021/04/18 03:18:02;;;;;;;6.72;2.97;;;;;;;;;;5028828;28;20137;-50
2021/04/18 03:20:28;;;;;;;8.38;3.10;;;;;;;;;;5032740;28;20053;-54
2021/04/18 03:22:55;;;;;;;10.20;3.40;;;;;;;;;;5046484;28;20534;-56
2021/04/18 03:25:21;;;;;;;12.20;3.22;;;;;;;;;;5030616;28;20056;-54
2021/04/18 03:27:47;;;;;;;11.15;3.40;;;;;;;;;;5027997;28;20037;-52
2021/04/18 03:30:16;;;;;;;10.93;3.22;;;;;;;;;;5030092;28;20068;-53
2021/04/18 03:32:42;;;;;;;;;;;;;;;;;;5065447;28;20037;-51
2021/04/18 03:35:08;;;;;;;9.18;2.50;;;;;;;;;;5028060;28;19917;-50
2021/04/18 03:37:34;;;;;;;6.05;2.40;;;;;;;;;;5032572;28;20056;-52
2021/04/18 03:40:03;;;;;;;8.55;3.25;;;;;;;;;;5028158;28;20033;-50
2021/04/18 03:42:29;;;;;;;11.73;3.80;;;;;;;;;;5035452;28;20505;-53
2021/04/18 03:44:55;;;;;;;7.35;2.72;;;;;;;;;;5047656;28;20045;-56
2021/04/18 03:47:21;;;;;;;8.82;2.97;;;;;;;;;;5035726;28;20110;-51
2021/04/18 03:49:49;;;;;;;7.82;3.10;;;;;;;;;;5026205;28;20042;-53
2021/04/18 03:52:15;;;;;;;7.03;3.03;;;;;;;;;;5026454;28;20057;-54
2021/04/18 03:54:41;;;;;;;14.43;3.03;;;;;;;;;;5045602;28;20126;-47
2021/04/18 03:57:08;;;;;;;7.18;3.08;;;;;;;;;;5065053;28;20040;-52
2021/04/18 03:59:35;;;;;;;9.82;3.10;;;;;;;;;;5040750;28;20133;-51
2021/04/18 04:02:01;;;;;;;11.30;3.10;;;;;;;;;;5063279;28;20043;-52
2021/04/18 04:04:27;;;;;;;8.27;3.05;;;;;;;;;;5031725;28;20045;-52
2021/04/18 04:06:53;;;;;;;10.40;2.85;;;;;;;;;;5026983;28;20048;-49
2021/04/18 04:09:19;;;;;;;9.07;3.03;;;;;;;;;;5016246;28;20049;-56
2021/04/18 04:11:45;;;;;;;10.05;3.17;;;;;;;;;;5047151;28;20089;-53
2021/04/18 04:14:12;;;;;;;10.02;3.15;;;;;;;;;;5045929;28;20056;-52
2021/04/18 04:16:38;;;;;;;7.97;2.80;;;;;;;;;;5038847;28;20140;-52
2021/04/18 04:19:05;;;;;;;8.80;2.60;;;;;;;;;;5064225;28;20434;-50
2021/04/18 04:21:31;;;;;;;7.88;2.63;;;;;;;;;;5042368;28;20060;-54
2021/04/18 04:23:57;;;;;;;8.57;2.65;;;;;;;;;;5048272;28;20037;-53
2021/04/18 04:26:23;;;;;;;7.25;2.70;;;;;;;;;;5042754;28;20067;-56
2021/04/18 04:28:51;;;;;;;9.52;2.70;;;;;;;;;;5064994;28;20032;-52
2021/04/18 04:31:18;;;;;;;7.72;2.72;;;;;;;;;;5061192;28;20126;-51
2021/04/18 04:33:45;;;;;;;8.52;3.05;;;;;;;;;;5037262;28;20029;-53
2021/04/18 04:36:11;;;;;;;15.07;3.00;;;;;;;;;;5029021;28;20033;-51
2021/04/18 04:38:37;;;;;;;7.45;2.80;;;;;;;;;;5045277;28;20052;-52
2021/04/18 04:41:03;;;;;;;8.07;2.50;;;;;;;;;;5059461;28;20457;-52
2021/04/18 04:43:29;;;;;;;7.43;2.92;;;;;;;;;;5045164;28;20041;-49
2021/04/18 04:45:55;;;;;;;6.53;2.75;;;;;;;;;;5042128;28;20152;-51
2021/04/18 04:48:22;;;;;;;11.82;2.70;;;;;;;;;;5043874;28;20047;-51
2021/04/18 04:50:48;;;;;;;10.50;2.88;;;;;;;;;;5045209;28;20037;-51
2021/04/18 04:53:14;;;;;;;10.68;3.10;;;;;;;;;;5039888;28;20037;-51
2021/04/18 04:55:42;;;;;;;8.70;3.17;;;;;;;;;;5045922;28;20041;-51
2021/04/18 04:58:08;;;;;;;7.47;2.63;;;;;;;;;;5043088;28;20158;-50
2021/04/18 05:00:35;;;;;;;10.45;2.95;;;;;;;;;;5062309;28;20048;-50
2021/04/18 05:03:01;;;;;;;9.02;2.80;;;;;;;;;;5058092;28;20043;-51
2021/04/18 05:05:28;;;;;;;11.35;3.40;;;;;;;;;;5043014;28;20046;-49
2021/04/18 05:07:54;;;;;;;7.97;2.72;;;;;;;;;;5041095;28;20048;-57
2021/04/18 05:10:20;;;;;;;8.98;2.97;;;;;;;;;;5044788;28;20040;-53
2021/04/18 05:12:46;;;;;;;12.65;2.70;;;;;;;;;;5059461;28;20041;-53
2021/04/18 05:15:15;;;;;;;8.45;2.78;;;;;;;;;;5045451;28;20041;-51
2021/04/18 05:17:40;;;;;;;;;;;;;;;;;;5040525;28;20067;-51
2021/04/18 05:20:10;;;;;;;11.43;2.85;;;;;;;;;;5044388;28;19921;-48
2021/04/18 05:22:36;;;;;;;10.05;2.70;;;;;;;;;;5040998;28;20118;-55
2021/04/18 05:25:03;;;;;;;6.97;3.05;;;;;;;;;;5045291;28;20048;-50
2021/04/18 05:27:29;;;;;;;16.00;3.20;;;;;;;;;;5044369;28;20045;-53
2021/04/18 05:29:55;;;;;;;14.43;3.40;;;;;;;;;;5040069;28;20051;-50
2021/04/18 05:32:21;;;;;;;9.68;3.30;;;;;;;;;;5044170;28;20044;-53
2021/04/18 05:34:48;;;;;;;11.77;3.15;;;;;;;;;;5026910;28;20072;-51
2021/04/18 05:37:14;;;;;;;11.30;3.10;;;;;;;;;;5022740;28;20045;-50
2021/04/18 05:39:41;;;;;;;20.55;3.60;;;;;;;;;;5036212;28;20077;-52
2021/04/18 05:42:07;;;;;;;10.40;3.17;;;;;;;;;;5062545;28;20048;-54
2021/04/18 05:44:36;;;;;;;13.35;3.97;;;;;;;;;;5041952;28;20036;-52
2021/04/18 05:47:02;;;;;;;11.77;3.72;;;;;;;;;;5044445;28;20045;-53
2021/04/18 05:49:27;;;;;;;13.82;4.47;;;;;;;;;;5040640;28;20082;-50
2021/04/18 05:51:53;;;;;;;13.45;3.55;;;;;;;;;;5064064;28;20661;-51
2021/04/18 05:54:20;;;;;;;12.07;4.10;;;;;;;;;;5058279;28;20051;-49
2021/04/18 05:56:47;;;;;;;16.48;3.97;;;;;;;;;;5044666;28;20056;-51
2021/04/18 05:59:13;;;;;;;15.07;4.28;;;;;;;;;;5042665;28;20133;-54
2021/04/18 06:01:39;;;;;;;14.95;4.03;;;;;;;;;;5044058;28;20040;-50
2021/04/18 06:04:05;;;;;;;14.60;4.22;;;;;;;;;;5035157;28;20041;-55
2021/04/18 06:06:31;;;;;;;18.02;4.10;;;;;;;;;;5021183;28;20118;-53
2021/04/18 06:09:00;;;;;;;13.63;3.83;;;;;;;;;;5018888;28;20038;-52
2021/04/18 06:11:26;;;;;;;16.33;3.70;;;;;;;;;;5032917;28;20041;-55
2021/04/18 06:13:53;;;;;;;14.73;3.95;;;;;;;;;;5039456;28;20416;-53
2021/04/18 06:16:19;;;;;;;13.95;3.75;;;;;;;;;;5037418;28;20080;-55
2021/04/18 06:18:45;;;;;;;15.65;4.20;;;;;;;;;;5040291;28;20459;-55
2021/04/18 06:21:11;;;;;;;13.48;3.72;;;;;;;;;;5035199;28;20045;-51
2021/04/18 06:23:37;;;;;;;10.75;3.70;;;;;;;;;;5040192;28;20037;-55
2021/04/18 06:26:03;;;;;;;13.18;3.47;;;;;;;;;;5025804;28;20053;-54
2021/04/18 06:28:30;;;;;;;8.10;3.35;;;;;;;;;;5019792;28;20045;-55
2021/04/18 06:30:57;;;;;;;9.55;3.50;;;;;;;;;;5019699;28;20127;-55
2021/04/18 06:33:23;;;;;;;11.18;3.17;;;;;;;;;;5017895;28;20034;-56
2021/04/18 06:35:50;;;;;;;7.65;2.83;;;;;;;;;;5005062;28;20085;-53
2021/04/18 06:38:16;;;;;;;7.43;3.00;;;;;;;;;;5023274;28;20061;-54
2021/04/18 06:40:43;;;;;;;6.65;2.67;;;;;;;;;;5021343;28;20053;-52
2021/04/18 06:43:10;;;;;;;8.05;2.95;;;;;;;;;;5022192;28;20037;-56
2021/04/18 06:45:37;;;;;;;8.50;3.17;;;;;;;;;;5020919;28;20030;-53
2021/04/18 06:48:04;;;;;;;7.55;2.63;;;;;;;;;;5023427;28;20330;-54
2021/04/18 06:50:31;;;;;;;5.25;2.60;;;;;;;;;;5009656;28;20038;-55
2021/04/18 06:52:57;;;;;;;12.55;2.67;;;;;;;;;;5016065;28;20554;-52
2021/04/18 06:55:25;;;;;;;5.55;2.38;;;;;;;;;;5021933;28;20041;-55
2021/04/18 06:57:51;;;;;;;4.53;2.28;;;;;;;;;;5019554;28;20323;-53
2021/04/18 07:00:18;;;;;;;9.00;2.88;;;;;;;;;;5024493;28;20048;-54
2021/04/18 07:02:44;;;;;;;5.40;2.10;;;;;;;;;;5030747;28;20037;-52
2021/04/18 07:05:12;;;;;;;6.28;2.53;;;;;;;;;;5041848;28;20354;-52
2021/04/18 07:07:39;;;;;;;5.43;2.20;;;;;;;;;;5029206;28;20050;-53
2021/04/18 07:10:05;;;;;;;8.43;2.42;;;;;;;;;;5023342;28;20042;-54
2021/04/18 07:12:32;;;;;;;5.85;2.35;;;;;;;;;;5019259;28;20056;-52
2021/04/18 07:14:58;;;;;;;6.78;2.35;;;;;;;;;;5023329;28;20421;-53
2021/04/18 07:17:25;;;;;;;8.07;2.90;;;;;;;;;;5020566;28;20045;-51
2021/04/18 07:20:07;;;;;;;10.10;3.53;;;;;;;;;;5026356;28;20041;-51
2021/04/18 07:22:33;;;;;;;8.10;3.53;;;;;;;;;;5018869;28;20453;-53
2021/04/18 07:25:00;;;;;;;7.18;2.75;;;;;;;;;;5018442;28;20575;-51
2021/04/18 07:27:42;;;;;;;6.63;2.88;;;;;;;;;;5011564;28;20106;-51
2021/04/18 07:30:09;;;;;;;6.70;2.55;;;;;;;;;;5010256;28;20101;-53
2021/04/18 07:32:35;;;;;;;9.63;3.63;;;;;;;;;;5008045;28;20037;-53
2021/04/18 07:35:01;;;;;;;6.68;3.05;;;;;;;;;;5011039;28;20065;-55
2021/04/18 07:37:28;;;;;;;7.80;3.40;;;;;;;;;;5005926;28;20065;-53
2021/04/18 07:39:56;;;;;;;9.30;3.33;;;;;;;;;;5003839;28;20077;-50
2021/04/18 07:42:33;;;;;;;10.82;3.60;;;;;;;;;;5009929;28;20038;-50
2021/04/18 07:45:00;;;;;;;10.57;3.65;;;;;;;;;;5012608;28;20030;-53
2021/04/18 07:47:27;;;;;;;14.10;3.70;;;;;;;;;;5010269;28;20054;-53
2021/04/18 07:49:56;;;;;;;8.63;3.58;;;;;;;;;;5012185;28;20073;-55
2021/04/18 07:52:23;;;;;;;7.50;3.78;;;;;;;;;;5013508;28;20131;-56
2021/04/18 07:54:49;;;;;;;9.05;3.15;;;;;;;;;;5013417;28;20049;-51
2021/04/18 07:57:17;;;;;;;15.45;3.13;;;;;;;;;;5011012;28;20042;-55
2021/04/18 07:59:44;;;;;;;11.65;3.85;;;;;;;;;;5008778;28;20044;-53
2021/04/18 08:02:13;;;;;;;11.20;3.80;;;;;;;;;;5016271;28;20069;-56
2021/04/18 08:04:38;;;;;;;;;;;;;;;;;;5051202;28;20211;-58
2021/04/18 08:07:05;;;;;;;6.90;2.90;;;;;;;;;;5051311;28;19927;-53
2021/04/18 08:09:31;;;;;;;7.30;3.20;;;;;;;;;;5038977;28;20051;-54
2021/04/18 08:12:06;;;;;;;9.27;3.80;;;;;;;;;;5046220;28;20033;-53
2021/04/18 08:14:33;;;;;;;11.30;4.55;;;;;;;;;;5060771;28;20041;-54
2021/04/18 08:17:02;;;;;;;12.90;3.78;;;;;;;;;;5044555;28;20048;-55
2021/04/18 08:19:28;;;;;;;;;;;;;;;;;;5042322;28;20040;-52
2021/04/18 08:21:54;;;;;;;8.25;3.53;;;;;;;;;;5060013;28;19976;-50
2021/04/18 08:24:30;;;;;;;11.95;3.65;;;;;;;;;;5045218;28;20041;-55
2021/04/18 08:26:58;;;;;;;11.13;3.38;;;;;;;;;;5040795;28;20045;-53
2021/04/18 08:29:24;;;;;;;9.88;3.67;;;;;;;;;;5044501;28;20141;-53
2021/04/18 08:32:11;;;;;;;9.05;3.72;;;;;;;;;;5040800;28;20044;-53
2021/04/18 08:34:40;;;;;;;10.95;3.22;;;;;;;;;;5043800;28;20063;-55
2021/04/18 08:37:13;;;;;;;8.48;3.97;;;;;;;;;;5041783;28;20034;-55
2021/04/18 08:39:40;;;;;;;8.02;3.38;;;;;;;;;;5046125;28;20044;-52
2021/04/18 08:42:07;;;;;;;11.80;4.05;;;;;;;;;;5043225;28;20049;-53
2021/04/18 08:44:42;;;;;;;8.05;3.47;;;;;;;;;;5048339;28;20028;-55
2021/04/18 08:47:09;;;;;;;11.25;3.80;;;;;;;;;;5043256;28;20033;-57
2021/04/18 08:49:35;;;;;;;9.77;4.68;;;;;;;;;;5043857;28;20069;-54
2021/04/18 08:52:06;;;;;;;17.00;5.63;;;;;;;;;;5042487;28;20045;-55
2021/04/18 08:54:32;;;;;;;12.15;5.25;;;;;;;;;;5044011;28;20099;-55
2021/04/18 08:56:59;;;;;;;10.25;4.28;;;;;;;;;;5041103;28;20117;-54
2021/04/18 08:59:31;;;;;;;17.05;4.55;;;;;;;;;;5045654;28;20049;-53
2021/04/18 09:01:59;;;;;;;11.98;4.30;;;;;;;;;;5039696;28;20052;-56
2021/04/18 09:04:26;;;;;;;9.73;4.13;;;;;;;;;;5043486;28;20072;-56
2021/04/18 09:06:52;;;;;;;10.57;4.55;;;;;;;;;;5039499;28;20041;-56
2021/04/18 09:09:19;;;;;;;17.85;4.13;;;;;;;;;;5061297;28;20040;-49
2021/04/18 09:11:50;;;;;;;14.75;3.55;;;;;;;;;;5041615;28;20049;-50
2021/04/18 09:14:17;;;;;;;11.07;3.58;;;;;;;;;;5034935;28;20052;-55
2021/04/18 09:16:43;;;;;;;9.27;3.58;;;;;;;;;;5041340;28;20021;-55
2021/04/18 09:19:33;;;;;;;9.50;3.35;;;;;;;;;;5061599;28;20228;-54
2021/04/18 09:22:05;;;;;;;12.48;4.03;;;;;;;;;;5031073;28;20057;-54
2021/04/18 09:24:32;;;;;;;7.40;3.78;;;;;;;;;;5044054;28;20049;-55
2021/04/18 09:26:59;;;;;;;11.75;4.25;;;;;;;;;;5040246;28;20036;-56
2021/04/18 09:29:27;;;;;;;11.20;4.57;;;;;;;;;;5043317;28;20078;-57
2021/04/18 09:31:54;;;;;;;15.13;4.55;;;;;;;;;;5060235;28;20121;-52
2021/04/18 09:34:21;;;;;;;12.52;4.53;;;;;;;;;;5040725;28;20040;-57
2021/04/18 09:36:47;;;;;;;9.13;3.50;;;;;;;;;;5045067;28;20044;-56
2021/04/18 09:39:13;;;;;;;10.68;4.93;;;;;;;;;;5043081;28;20041;-54
2021/04/18 09:41:41;;;;;;;8.68;3.97;;;;;;;;;;5060948;28;20040;-56
2021/04/18 09:44:08;;;;;;;8.48;3.42;;;;;;;;;;5029642;28;20041;-57
2021/04/18 09:46:40;;;;;;;8.00;3.45;;;;;;;;;;5024638;28;20354;-56
2021/04/18 09:49:07;;;;;;;8.20;3.03;;;;;;;;;;5028671;28;20045;-57
2021/04/18 09:51:47;;;;;;;9.13;3.83;;;;;;;;;;5022947;28;20044;-57
2021/04/18 09:54:16;;;;;;;9.05;3.58;;;;;;;;;;5030936;28;20033;-53
2021/04/18 09:56:43;;;;;;;8.85;3.78;;;;;;;;;;5043452;28;20049;-58
2021/04/18 09:59:18;;;;;;;9.85;3.40;;;;;;;;;;5039598;28;20055;-55
2021/04/18 10:01:44;;;;;;;5.90;2.58;;;;;;;;;;5061841;28;20174;-53
2021/04/18 10:04:21;;;;;;;6.88;3.10;;;;;;;;;;5035657;28;20033;-57
2021/04/18 10:06:47;;;;;;;9.38;3.20;;;;;;;;;;5041346;28;20045;-58
2021/04/18 10:09:14;;;;;;;9.05;3.22;;;;;;;;;;5053477;28;20119;-58
2021/04/18 10:11:39;;;;;;;7.45;3.00;;;;;;;;;;5043341;28;20106;-54
2021/04/18 10:14:18;;;;;;;13.70;3.08;;;;;;;;;;5039928;28;20049;-54
2021/04/18 10:16:44;;;;;;;9.57;2.90;;;;;;;;;;5038786;28;20050;-58
2021/04/18 10:19:11;;;;;;;7.70;2.88;;;;;;;;;;5037209;28;20369;-57
2021/04/18 10:21:40;;;;;;;8.52;3.03;;;;;;;;;;5039604;28;20030;-58
2021/04/18 10:24:06;;;;;;;;;;;;;;;;;;5039677;28;20054;-59
2021/04/18 10:26:32;;;;;;;8.32;2.53;;;;;;;;;;5038304;28;19921;-57
2021/04/18 10:29:01;;;;;;;7.60;2.97;;;;;;;;;;5041466;28;20209;-57
2021/04/18 10:31:32;;;;;;;6.70;3.03;;;;;;;;;;5054971;28;20131;-57
2021/04/18 10:33:58;;;;;;;11.07;2.63;;;;;;;;;;5037060;28;20045;-58
2021/04/18 10:36:24;;;;;;;10.57;3.95;;;;;;;;;;5020428;28;20047;-56
2021/04/18 10:38:51;;;;;;;9.13;3.50;;;;;;;;;;5039593;28;20041;-58
2021/04/18 10:41:17;;;;;;;11.55;2.80;;;;;;;;;;5038171;28;20037;-58
2021/04/18 10:43:43;;;;;;;14.25;3.35;;;;;;;;;;5040223;28;20037;-57
2021/04/18 10:46:09;;;;;;;11.25;2.97;;;;;;;;;;5034258;28;20148;-58
2021/04/18 10:48:36;;;;;;;7.82;2.83;;;;;;;;;;5041256;28;20051;-55
2021/04/18 10:51:03;;;;;;;10.07;3.15;;;;;;;;;;5034516;28;20041;-56
2021/04/18 10:53:29;;;;;;;9.60;2.95;;;;;;;;;;5039558;28;20052;-58
2021/04/18 10:55:55;;;;;;;12.95;3.35;;;;;;;;;;5037542;28;20049;-58
2021/04/18 10:58:21;;;;;;;8.52;3.17;;;;;;;;;;5038346;28;20091;-56
2021/04/18 11:00:47;;;;;;;9.18;3.33;;;;;;;;;;5035767;28;20062;-56
2021/04/18 11:03:13;;;;;;;11.40;3.75;;;;;;;;;;5028105;28;20050;-58
2021/04/18 11:05:40;;;;;;;11.30;3.10;;;;;;;;;;5034547;28;20034;-59
2021/04/18 11:08:08;;;;;;;9.20;3.08;;;;;;;;;;5016958;28;20164;-58
2021/04/18 11:10:34;;;;;;;10.40;2.95;;;;;;;;;;5020452;28;20044;-56
2021/04/18 11:13:00;;;;;;;12.52;3.35;;;;;;;;;;4996973;28;20057;-57
2021/04/18 11:15:26;;;;;;;10.60;2.80;;;;;;;;;;5020865;28;20037;-53
2021/04/18 11:17:52;;;;;;;19.23;3.35;;;;;;;;;;5017679;28;20089;-56
2021/04/18 11:20:20;;;;;;;9.98;3.00;;;;;;;;;;5022877;28;20037;-59
2021/04/18 11:22:47;;;;;;;7.70;3.00;;;;;;;;;;5020346;28;20053;-56
2021/04/18 11:25:13;;;;;;;15.07;3.10;;;;;;;;;;5023581;28;20049;-58
2021/04/18 11:27:40;;;;;;;9.02;2.95;;;;;;;;;;5018652;28;20038;-56
2021/04/18 11:30:07;;;;;;;9.13;2.88;;;;;;;;;;5021723;28;20052;-58
2021/04/18 11:32:33;;;;;;;13.75;3.17;;;;;;;;;;5018747;28;20034;-59
2021/04/18 11:34:59;;;;;;;10.80;3.53;;;;;;;;;;5022449;28;20041;-56
2021/04/18 11:37:25;;;;;;;8.07;3.10;;;;;;;;;;5019637;28;20169;-56
2021/04/18 11:39:54;;;;;;;9.38;2.80;;;;;;;;;;5023383;28;20045;-58
2021/04/18 11:42:20;;;;;;;10.25;2.38;;;;;;;;;;5020298;28;20066;-59
2021/04/18 11:44:46;;;;;;;17.50;3.47;;;;;;;;;;5026665;28;20115;-57
2021/04/18 11:47:12;;;;;;;7.22;3.20;;;;;;;;;;5008687;28;20108;-59
2021/04/18 11:49:38;;;;;;;9.40;3.25;;;;;;;;;;5017613;28;20069;-57
2021/04/18 11:52:04;;;;;;;19.88;3.67;;;;;;;;;;5021834;28;20048;-58
2021/04/18 11:54:30;;;;;;;17.48;3.22;;;;;;;;;;5018167;28;20330;-58
2021/04/18 11:56:57;;;;;;;15.27;4.60;;;;;;;;;;5023271;28;20061;-59
2021/04/18 11:59:23;;;;;;;9.23;3.58;;;;;;;;;;5019606;28;20056;-56
2021/04/18 12:01:52;;;;;;;16.65;3.70;;;;;;;;;;5020638;28;20037;-56
2021/04/18 12:04:18;;;;;;;10.43;3.95;;;;;;;;;;5058319;28;20083;-58
2021/04/18 12:06:44;;;;;;;15.82;4.25;;;;;;;;;;5062158;28;20041;-58
2021/04/18 12:09:13;;;;;;;9.45;3.97;;;;;;;;;;5040674;28;20052;-59
2021/04/18 12:11:39;;;;;;;15.80;4.28;;;;;;;;;;5063097;28;20146;-58
2021/04/18 12:14:06;;;;;;;14.55;4.78;;;;;;;;;;5057834;28;20060;-58
2021/04/18 12:16:31;;;;;;;10.93;4.70;;;;;;;;;;5041191;28;20098;-57
2021/04/18 12:18:58;;;;;;;13.95;5.15;;;;;;;;;;5040202;28;20045;-56
2021/04/18 12:21:24;;;;;;;10.68;4.20;;;;;;;;;;5062405;28;20045;-58
2021/04/18 12:23:49;;;;;;;13.00;4.38;;;;;;;;;;5040881;28;20125;-57
2021/04/18 12:26:15;;;;;;;9.23;4.25;;;;;;;;;;5059538;28;20040;-57
2021/04/18 12:28:41;;;;;;;14.60;4.60;;;;;;;;;;5043123;28;20114;-57
2021/04/18 12:31:08;;;;;;;10.63;4.40;;;;;;;;;;5039891;28;20106;-57
2021/04/18 12:33:38;;;;;;;10.73;4.40;;;;;;;;;;5062092;28;20029;-58
2021/04/18 12:36:05;;;;;;;12.15;4.53;;;;;;;;;;5039755;28;20032;-56
2021/04/18 12:38:32;;;;;;;10.43;3.83;;;;;;;;;;5051605;28;20029;-58
2021/04/18 12:40:58;;;;;;;8.85;4.00;;;;;;;;;;5032195;28;20048;-55
2021/04/18 12:43:24;;;;;;;10.77;4.18;;;;;;;;;;5026650;28;20053;-59
2021/04/18 12:45:51;;;;;;;15.45;4.15;;;;;;;;;;5050490;28;20037;-57
2021/04/18 12:48:18;;;;;;;9.50;4.00;;;;;;;;;;5044527;28;20065;-58
2021/04/18 12:50:44;;;;;;;12.07;4.72;;;;;;;;;;5058642;28;20061;-58
2021/04/18 12:53:10;;;;;;;10.77;4.40;;;;;;;;;;5062928;28;20044;-57
2021/04/18 12:55:36;;;;;;;13.35;4.35;;;;;;;;;;5041460;28;20045;-57
2021/04/18 12:58:02;;;;;;;12.07;5.03;;;;;;;;;;5043484;28;20110;-56
2021/04/18 13:00:29;;;;;;;9.52;4.43;;;;;;;;;;5041076;28;20074;-59
2021/04/18 13:02:56;;;;;;;15.32;5.22;;;;;;;;;;5061024;28;20049;-60
2021/04/18 13:05:22;;;;;;;13.27;4.40;;;;;;;;;;5062015;28;20121;-57
2021/04/18 13:07:48;;;;;;;13.55;4.97;;;;;;;;;;5043391;28;20049;-60
2021/04/18 13:10:15;;;;;;;14.90;5.50;;;;;;;;;;5061339;28;20043;-58
2021/04/18 13:12:42;;;;;;;14.70;5.10;;;;;;;;;;5041206;28;20036;-57
2021/04/18 13:15:09;;;;;;;11.47;4.90;;;;;;;;;;5063103;28;20082;-59
2021/04/18 13:17:35;;;;;;;10.48;4.35;;;;;;;;;;5062214;28;20293;-55
2021/04/18 13:20:03;;;;;;;17.98;4.95;;;;;;;;;;5046780;28;20040;-57
2021/04/18 13:22:30;;;;;;;13.98;5.47;;;;;;;;;;5057304;28;20037;-59
2021/04/18 13:24:57;;;;;;;11.73;5.25;;;;;;;;;;5044658;28;20037;-58
2021/04/18 13:27:23;;;;;;;19.08;5.75;;;;;;;;;;5040716;28;20040;-60
2021/04/18 13:29:49;;;;;;;12.18;4.63;;;;;;;;;;5034942;28;20049;-59
2021/04/18 13:32:15;;;;;;;11.02;4.15;;;;;;;;;;5040593;28;20114;-60
2021/04/18 13:34:41;;;;;;;13.48;5.05;;;;;;;;;;5061379;28;20053;-56
2021/04/18 13:37:07;;;;;;;14.23;5.40;;;;;;;;;;5040940;28;20044;-58
2021/04/18 13:39:34;;;;;;;15.80;5.80;;;;;;;;;;5043934;28;20110;-59
2021/04/18 13:42:00;;;;;;;9.55;4.35;;;;;;;;;;5040678;28;20040;-56
2021/04/18 13:44:26;;;;;;;12.50;4.63;;;;;;;;;;5062392;28;20037;-59
2021/04/18 13:46:52;;;;;;;12.57;4.68;;;;;;;;;;5043247;28;20129;-59
2021/04/18 13:49:19;;;;;;;12.05;4.90;;;;;;;;;;5039574;28;20041;-55
2021/04/18 13:51:45;;;;;;;10.98;4.65;;;;;;;;;;5062552;28;20052;-58
2021/04/18 13:54:11;;;;;;;13.63;5.40;;;;;;;;;;5057020;28;20052;-59
2021/04/18 13:56:39;;;;;;;11.43;4.35;;;;;;;;;;5060755;28;20056;-59
2021/04/18 13:59:05;;;;;;;11.70;4.38;;;;;;;;;;5039756;28;20114;-58
2021/04/18 14:01:31;;;;;;;21.88;4.13;;;;;;;;;;5043530;28;20041;-58
2021/04/18 14:03:57;;;;;;;13.30;4.70;;;;;;;;;;5040295;28;20111;-57
2021/04/18 14:06:23;;;;;;;14.15;4.88;;;;;;;;;;5060246;28;20069;-56
2021/04/18 14:08:50;;;;;;;14.40;4.00;;;;;;;;;;5039752;28;20041;-57
2021/04/18 14:11:16;;;;;;;12.18;4.38;;;;;;;;;;5043059;28;20043;-57
2021/04/18 14:13:43;;;;;;;13.32;4.15;;;;;;;;;;5058170;28;20049;-57
2021/04/18 14:16:09;;;;;;;12.68;3.72;;;;;;;;;;5044197;28;20155;-58
2021/04/18 14:18:35;;;;;;;8.38;3.55;;;;;;;;;;5040322;28;20151;-57
2021/04/18 14:21:04;;;;;;;11.60;3.33;;;;;;;;;;5044024;28;20051;-59
2021/04/18 14:23:30;;;;;;;12.20;3.65;;;;;;;;;;5040855;28;20114;-58
2021/04/18 14:25:56;;;;;;;9.95;3.92;;;;;;;;;;5042647;28;20060;-55
2021/04/18 14:28:22;;;;;;;6.93;2.88;;;;;;;;;;5043252;28;20199;-59
2021/04/18 14:30:49;;;;;;;12.10;3.08;;;;;;;;;;5039146;28;20040;-59
2021/04/18 14:33:15;;;;;;;11.25;3.78;;;;;;;;;;5043614;28;20052;-60
2021/04/18 14:35:41;;;;;;;9.55;3.72;;;;;;;;;;5040044;28;20099;-58
2021/04/18 14:38:07;;;;;;;10.95;3.13;;;;;;;;;;5041993;28;20045;-58